Time;durP1;ratioP1;P1;durP2;ratioP2;P2;SDS_P1;SDS_P2;PMS_P1;PMS_P2;Temp;Humidity;BMP_temperature;BMP_pressure;BME280_temperature;BME280_humidity;BME280_pressure;Samples;Min_cycle;Max_cycle;Signal;HPM_P1;HPM_P2
2022/02/25 00:01:51;;;;;;;7.60;4.20;;;3.10;75.20;;;;;;4996527;28;20415;-75
2022/02/25 00:04:17;;;;;;;6.57;3.67;;;3.10;73.40;;;;;;5012076;28;20404;-76
2022/02/25 00:06:42;;;;;;;8.60;4.00;;;3.20;72.60;;;;;;5009968;28;20460;-74
2022/02/25 00:09:08;;;;;;;8.30;4.40;;;3.20;71.30;;;;;;5015454;28;20416;-75
2022/02/25 00:11:34;;;;;;;7.53;4.00;;;3.20;71.50;;;;;;5001234;28;20391;-75
2022/02/25 00:13:59;;;;;;;8.13;4.07;;;3.10;72.90;;;;;;5003200;28;20426;-75
2022/02/25 00:16:25;;;;;;;6.97;4.20;;;3.20;73.90;;;;;;5000798;28;20397;-75
2022/02/25 00:18:51;;;;;;;8.88;4.50;;;3.20;72.30;;;;;;5005164;28;20483;-74
2022/02/25 00:21:16;;;;;;;7.60;4.30;;;3.20;71.30;;;;;;5009011;28;20451;-75
2022/02/25 00:23:42;;;;;;;7.43;4.73;;;3.20;72.90;;;;;;5000863;28;20434;-74
2022/02/25 00:26:08;;;;;;;15.18;7.50;;;3.10;73.30;;;;;;5003930;28;20401;-74
2022/02/25 00:28:33;;;;;;;15.77;7.88;;;3.20;73.00;;;;;;5006318;28;20447;-75
2022/02/25 00:30:59;;;;;;;19.27;9.50;;;3.20;72.80;;;;;;5006893;28;20425;-75
2022/02/25 00:33:25;;;;;;;15.07;9.45;;;3.20;71.40;;;;;;5007686;28;20818;-75
2022/02/25 00:35:50;;;;;;;14.55;9.20;;;3.20;71.70;;;;;;4998134;28;20510;-75
2022/02/25 00:38:17;;;;;;;16.47;10.03;;;3.20;72.30;;;;;;5004711;28;20384;-74
2022/02/25 00:40:43;;;;;;;14.32;8.93;;;3.30;71.70;;;;;;5000683;28;20407;-75
2022/02/25 00:43:08;;;;;;;11.05;8.32;;;3.20;70.80;;;;;;5008061;28;20389;-75
2022/02/25 00:45:34;;;;;;;12.03;8.50;;;3.30;69.70;;;;;;4994808;28;20413;-75
2022/02/25 00:48:00;;;;;;;14.53;9.17;;;3.40;68.80;;;;;;4994317;28;20421;-74
2022/02/25 00:50:26;;;;;;;14.27;7.07;;;3.40;67.80;;;;;;5000864;28;20400;-74
2022/02/25 00:52:51;;;;;;;11.50;6.82;;;3.50;66.10;;;;;;5004552;28;20403;-75
2022/02/25 00:55:17;;;;;;;12.67;7.60;;;3.50;64.70;;;;;;5003994;28;20392;-77
2022/02/25 00:57:44;;;;;;;9.13;7.13;;;3.50;65.20;;;;;;4999768;28;20405;-74
2022/02/25 01:00:11;;;;;;;12.13;7.15;;;3.40;66.40;;;;;;5009734;28;20499;-74
2022/02/25 01:02:36;;;;;;;9.75;5.93;;;3.40;67.00;;;;;;5005388;28;20406;-74
2022/02/25 01:05:02;;;;;;;10.37;5.43;;;3.40;65.70;;;;;;5000342;28;20892;-74
2022/02/25 01:07:27;;;;;;;14.27;6.20;;;3.50;63.30;;;;;;5004156;28;20499;-74
2022/02/25 01:09:53;;;;;;;8.60;4.38;;;3.40;63.80;;;;;;5001263;28;20402;-75
2022/02/25 01:12:18;;;;;;;4.88;3.20;;;3.40;64.20;;;;;;5007309;28;20388;-74
2022/02/25 01:14:44;;;;;;;10.27;3.60;;;3.30;64.20;;;;;;4998691;28;20402;-75
2022/02/25 01:17:10;;;;;;;9.32;3.42;;;3.30;65.50;;;;;;5004051;28;20397;-75
2022/02/25 01:19:35;;;;;;;7.18;3.40;;;3.40;64.60;;;;;;5003952;28;20403;-73
2022/02/25 01:22:01;;;;;;;8.80;3.30;;;3.40;63.90;;;;;;5011703;28;20400;-74
2022/02/25 01:24:27;;;;;;;12.23;3.13;;;3.40;63.30;;;;;;5009489;28;20400;-74
2022/02/25 01:26:52;;;;;;;6.57;2.93;;;3.30;65.20;;;;;;5004275;28;20396;-74
2022/02/25 01:29:18;;;;;;;11.57;3.20;;;3.20;65.60;;;;;;5010158;28;20823;-73
2022/02/25 01:31:45;;;;;;;8.07;3.22;;;3.20;66.00;;;;;;5009171;28;20407;-73
2022/02/25 01:34:11;;;;;;;9.65;2.88;;;3.20;66.10;;;;;;5005424;28;20411;-74
2022/02/25 01:36:36;;;;;;;6.55;2.70;;;3.30;64.80;;;;;;5002505;28;20445;-74
2022/02/25 01:39:03;;;;;;;9.82;2.70;;;3.30;64.60;;;;;;5003883;28;20472;-74
2022/02/25 01:41:32;;;;;;;8.88;2.97;;;3.30;64.20;;;;;;5002866;28;20394;-74
2022/02/25 01:44:13;;;;;;;10.32;3.10;;;3.20;65.20;;;;;;5005191;28;20495;-75
2022/02/25 01:46:39;;;;;;;10.18;3.40;;;3.20;64.40;;;;;;4993980;28;20409;-74
2022/02/25 01:49:05;;;;;;;5.60;2.93;;;3.20;65.70;;;;;;5006411;28;20404;-75
2022/02/25 01:51:30;;;;;;;7.43;2.88;;;3.20;64.10;;;;;;5013778;28;20483;-75
2022/02/25 01:53:57;;;;;;;10.63;2.70;;;3.30;63.10;;;;;;5010243;28;20412;-74
2022/02/25 01:56:22;;;;;;;10.93;3.30;;;3.30;63.40;;;;;;5009397;28;20527;-75
2022/02/25 01:58:48;;;;;;;4.57;2.80;;;3.30;63.60;;;;;;5007294;28;20483;-74
2022/02/25 02:01:13;;;;;;;7.30;2.67;;;3.20;64.30;;;;;;5003411;28;20781;-74
2022/02/25 02:03:39;;;;;;;11.10;2.97;;;3.30;63.20;;;;;;5007249;28;20548;-75
2022/02/25 02:06:07;;;;;;;8.60;2.97;;;3.20;63.30;;;;;;5005240;28;20424;-74
2022/02/25 02:08:33;;;;;;;9.00;3.83;;;3.20;64.00;;;;;;5011092;28;20738;-74
2022/02/25 02:10:59;;;;;;;7.70;4.22;;;3.20;63.60;;;;;;4998546;28;20419;-74
2022/02/25 02:13:25;;;;;;;11.43;5.60;;;3.20;63.90;;;;;;5004160;28;20586;-75
2022/02/25 02:15:50;;;;;;;13.80;7.25;;;3.20;62.70;;;;;;5008807;28;20394;-75
2022/02/25 02:18:16;;;;;;;13.75;7.90;;;3.20;63.00;;;;;;5006385;28;20895;-75
2022/02/25 02:20:42;;;;;;;14.43;7.55;;;3.30;61.10;;;;;;4999977;28;20422;-75
2022/02/25 02:23:08;;;;;;;13.50;7.82;;;3.30;61.30;;;;;;5004550;28;20447;-75
2022/02/25 02:25:34;;;;;;;14.45;7.85;;;3.30;60.90;;;;;;5010317;28;20392;-75
2022/02/25 02:28:18;;;;;;;12.83;6.50;;;3.30;60.50;;;;;;5010478;28;20497;-75
2022/02/25 02:30:44;;;;;;;16.70;6.50;;;3.20;60.40;;;;;;5001267;28;20406;-76
2022/02/25 02:33:13;;;;;;;7.05;5.78;;;3.30;58.70;;;;;;5009478;28;20905;-75
2022/02/25 02:35:38;;;;;;;19.80;6.35;;;3.30;59.50;;;;;;5007728;28;20412;-75
2022/02/25 02:38:04;;;;;;;10.30;5.60;;;3.30;59.80;;;;;;5009291;28;20397;-75
2022/02/25 02:40:30;;;;;;;17.67;4.90;;;3.30;58.30;;;;;;5002907;28;20462;-75
2022/02/25 02:42:58;;;;;;;16.87;4.13;;;3.40;56.00;;;;;;5008553;28;20726;-75
2022/02/25 02:45:23;;;;;;;9.30;3.75;;;3.40;55.90;;;;;;4999351;28;20402;-74
2022/02/25 02:47:49;;;;;;;13.48;4.40;;;3.40;55.20;;;;;;5001249;28;20428;-74
2022/02/25 02:50:16;;;;;;;17.57;4.50;;;3.30;55.80;;;;;;4998517;28;20420;-75
2022/02/25 02:52:41;;;;;;;13.05;4.15;;;3.30;56.60;;;;;;5004283;28;20397;-74
2022/02/25 02:55:07;;;;;;;11.43;4.30;;;3.30;55.00;;;;;;5009956;28;20399;-75
2022/02/25 02:57:33;;;;;;;11.80;4.97;;;3.30;55.50;;;;;;5008994;28;20400;-75
2022/02/25 03:00:00;;;;;;;15.25;5.30;;;3.20;56.00;;;;;;5009187;28;20500;-75
2022/02/25 03:02:25;;;;;;;10.00;4.40;;;3.20;56.60;;;;;;5009271;28;20436;-74
2022/02/25 03:04:51;;;;;;;12.10;4.40;;;3.30;54.80;;;;;;4996752;28;20408;-74
2022/02/25 03:07:17;;;;;;;8.68;4.07;;;3.30;54.80;;;;;;5000520;28;20419;-74
2022/02/25 03:09:42;;;;;;;11.55;3.78;;;3.30;54.40;;;;;;5007648;28;20398;-75
2022/02/25 03:12:08;;;;;;;13.98;4.82;;;3.30;54.50;;;;;;5004044;28;20856;-75
2022/02/25 03:14:36;;;;;;;10.63;4.20;;;3.30;54.80;;;;;;5005188;28;20916;-75
2022/02/25 03:17:05;;;;;;;14.85;4.30;;;3.30;54.80;;;;;;5011684;28;20424;-75
2022/02/25 03:19:31;;;;;;;6.75;3.45;;;3.30;54.70;;;;;;4994339;28;20430;-76
2022/02/25 03:21:57;;;;;;;13.77;3.43;;;3.30;55.00;;;;;;5003620;28;20439;-75
2022/02/25 03:24:22;;;;;;;5.87;3.00;;;3.20;55.10;;;;;;4998818;28;20771;-75
2022/02/25 03:26:48;;;;;;;10.10;2.67;;;3.30;55.60;;;;;;5006522;28;21101;-75
2022/02/25 03:29:13;;;;;;;9.32;2.80;;;3.30;54.40;;;;;;5005494;28;20433;-75
2022/02/25 03:31:39;;;;;;;12.27;3.40;;;3.20;54.90;;;;;;4997806;28;20398;-75
2022/02/25 03:34:05;;;;;;;12.32;3.40;;;3.10;56.10;;;;;;5002097;28;20910;-75
2022/02/25 03:36:31;;;;;;;10.80;3.10;;;3.20;54.90;;;;;;5007860;28;20535;-75
2022/02/25 03:38:56;;;;;;;8.65;2.90;;;3.30;53.40;;;;;;5005886;28;20837;-75
2022/02/25 03:41:22;;;;;;;14.50;3.80;;;3.30;53.90;;;;;;5001093;28;20765;-75
2022/02/25 03:43:47;;;;;;;14.20;3.00;;;3.20;54.70;;;;;;5006289;28;20762;-74
2022/02/25 03:46:13;;;;;;;9.87;3.20;;;3.20;55.20;;;;;;5008411;28;20419;-74
2022/02/25 03:48:39;;;;;;;11.90;3.20;;;3.20;54.90;;;;;;5006186;28;20463;-74
2022/02/25 03:51:04;;;;;;;7.65;2.65;;;3.10;56.00;;;;;;5005225;28;20404;-74
2022/02/25 03:53:30;;;;;;;11.87;3.80;;;3.10;56.00;;;;;;5007529;28;20385;-74
2022/02/25 03:55:55;;;;;;;12.87;2.80;;;3.00;56.40;;;;;;5001011;28;20420;-74
2022/02/25 03:58:21;;;;;;;18.02;4.00;;;3.00;57.10;;;;;;5007853;28;20450;-75
2022/02/25 04:00:46;;;;;;;10.05;3.58;;;3.10;56.50;;;;;;5004884;28;20402;-74
2022/02/25 04:03:12;;;;;;;15.82;3.33;;;3.10;55.70;;;;;;5004140;28;20402;-76
2022/02/25 04:05:38;;;;;;;13.77;3.08;;;3.10;55.90;;;;;;4993507;28;20402;-74
2022/02/25 04:08:04;;;;;;;10.43;3.00;;;3.10;56.20;;;;;;5007377;28;20408;-75
2022/02/25 04:10:29;;;;;;;13.93;3.25;;;3.10;56.50;;;;;;5003089;28;20419;-74
2022/02/25 04:12:55;;;;;;;12.05;2.80;;;3.00;56.90;;;;;;5007367;28;20497;-74
2022/02/25 04:15:20;;;;;;;18.70;4.05;;;3.00;57.40;;;;;;4997167;28;20398;-76
2022/02/25 04:17:46;;;;;;;12.70;2.90;;;3.00;56.70;;;;;;5000302;28;20443;-74
2022/02/25 04:20:12;;;;;;;10.20;2.90;;;3.00;57.10;;;;;;5003247;28;20873;-74
2022/02/25 04:22:37;;;;;;;12.00;2.78;;;2.90;58.00;;;;;;5010569;28;20401;-74
2022/02/25 04:25:03;;;;;;;14.10;3.20;;;2.90;57.50;;;;;;5001318;28;20402;-75
2022/02/25 04:27:29;;;;;;;7.90;3.20;;;2.90;58.00;;;;;;5006383;28;20516;-75
2022/02/25 04:29:55;;;;;;;9.80;2.97;;;3.00;58.00;;;;;;5000783;28;20574;-75
2022/02/25 04:32:20;;;;;;;10.77;3.50;;;3.00;57.50;;;;;;5003481;28;20404;-74
2022/02/25 04:34:48;;;;;;;6.97;2.10;;;2.90;57.30;;;;;;5008746;28;20886;-74
2022/02/25 04:37:13;;;;;;;15.85;2.70;;;2.90;58.00;;;;;;5011105;28;20435;-75
2022/02/25 04:39:39;;;;;;;12.18;3.60;;;3.00;57.60;;;;;;5007068;28;20393;-74
2022/02/25 04:42:04;;;;;;;12.75;3.28;;;2.90;58.30;;;;;;5000860;28;20398;-74
2022/02/25 04:44:30;;;;;;;11.10;3.13;;;2.90;57.90;;;;;;5002188;28;20400;-74
2022/02/25 04:46:56;;;;;;;15.53;3.17;;;3.00;56.70;;;;;;5005613;28;21351;-74
2022/02/25 04:49:21;;;;;;;12.40;3.07;;;3.00;55.90;;;;;;5000691;28;20407;-74
2022/02/25 04:51:47;;;;;;;17.50;3.80;;;2.90;57.20;;;;;;5005413;28;20878;-76
2022/02/25 04:54:13;;;;;;;9.30;2.80;;;2.90;57.20;;;;;;5001473;28;20394;-76
2022/02/25 04:56:38;;;;;;;11.57;2.63;;;2.90;57.00;;;;;;5009451;28;20582;-73
2022/02/25 04:59:04;;;;;;;15.17;3.80;;;2.90;57.70;;;;;;5017096;28;20396;-75
2022/02/25 05:01:29;;;;;;;15.40;3.80;;;2.80;58.70;;;;;;5011286;28;20396;-72
2022/02/25 05:03:55;;;;;;;12.88;2.50;;;2.90;57.80;;;;;;5007011;28;20534;-72
2022/02/25 05:06:20;;;;;;;8.50;2.70;;;2.90;57.40;;;;;;5009000;28;20411;-73
2022/02/25 05:08:46;;;;;;;15.40;3.22;;;2.90;57.30;;;;;;5012950;28;20910;-73
2022/02/25 05:11:12;;;;;;;13.27;3.40;;;2.90;57.00;;;;;;5005930;28;20438;-73
2022/02/25 05:13:38;;;;;;;11.70;3.60;;;2.90;56.90;;;;;;5014694;28;20396;-72
2022/02/25 05:21:32;;;;;;;14.88;3.20;;;3.00;56.40;;;;;;5013211;28;20487;-73
2022/02/25 05:23:58;;;;;;;20.67;3.35;;;3.00;55.60;;;;;;5006617;28;20498;-74
2022/02/25 05:26:23;;;;;;;15.07;3.50;;;3.00;55.80;;;;;;5014539;28;20435;-74
2022/02/25 05:28:49;;;;;;;20.57;3.50;;;3.00;55.30;;;;;;5011764;28;20423;-75
2022/02/25 05:31:15;;;;;;;12.93;2.97;;;3.00;56.10;;;;;;5008142;28;20393;-73
2022/02/25 05:33:41;;;;;;;17.90;4.00;;;3.00;56.20;;;;;;5008473;28;20462;-73
2022/02/25 05:36:06;;;;;;;12.88;3.30;;;3.00;55.40;;;;;;5012431;28;20398;-73
2022/02/25 05:38:32;;;;;;;16.33;3.30;;;3.10;55.60;;;;;;5010852;28;20693;-73
2022/02/25 05:40:58;;;;;;;17.13;3.27;;;3.10;55.60;;;;;;5012380;28;20791;-73
2022/02/25 05:43:23;;;;;;;12.07;3.30;;;3.00;56.60;;;;;;5014685;28;20964;-73
2022/02/25 05:45:49;;;;;;;15.88;3.50;;;3.00;56.10;;;;;;5012718;28;20393;-73
2022/02/25 05:48:14;;;;;;;12.30;3.60;;;3.00;56.70;;;;;;5004098;28;20436;-75
2022/02/25 05:50:40;;;;;;;18.93;4.00;;;2.90;57.10;;;;;;5011443;28;20414;-74
2022/02/25 05:53:09;;;;;;;18.40;3.57;;;3.00;57.00;;;;;;5014885;28;20401;-73
2022/02/25 05:55:34;;;;;;;11.95;2.83;;;3.00;56.90;;;;;;5016999;28;20400;-74
2022/02/25 05:58:00;;;;;;;15.38;3.40;;;2.90;57.70;;;;;;5012884;28;20696;-74
2022/02/25 06:00:26;;;;;;;9.67;3.10;;;2.90;58.00;;;;;;5019945;28;20427;-73
2022/02/25 06:02:52;;;;;;;14.57;3.70;;;2.80;58.50;;;;;;5013943;28;20400;-73
2022/02/25 06:05:19;;;;;;;18.70;3.10;;;2.90;59.30;;;;;;5003107;28;20406;-72
2022/02/25 06:07:45;;;;;;;22.88;3.30;;;2.90;59.40;;;;;;5001859;28;20414;-73
2022/02/25 06:10:12;;;;;;;19.10;3.40;;;3.00;57.60;;;;;;5011599;28;20432;-73
2022/02/25 06:12:39;;;;;;;21.38;3.53;;;3.00;57.40;;;;;;5006076;28;20417;-73
2022/02/25 06:15:05;;;;;;;20.08;3.90;;;3.00;56.30;;;;;;5016023;28;20432;-73
2022/02/25 06:17:31;;;;;;;14.20;3.20;;;3.10;56.20;;;;;;5014492;28;20407;-73
2022/02/25 06:19:56;;;;;;;10.48;3.70;;;3.10;56.10;;;;;;4999706;28;20403;-73
2022/02/25 06:22:22;;;;;;;9.60;2.90;;;3.10;56.00;;;;;;5016683;28;20412;-73
2022/02/25 06:24:48;;;;;;;15.87;3.27;;;3.20;55.40;;;;;;5004898;28;20930;-73
2022/02/25 06:27:13;;;;;;;18.97;3.80;;;3.30;55.00;;;;;;5005326;28;20401;-74
2022/02/25 06:29:39;;;;;;;14.40;3.47;;;3.30;54.90;;;;;;5002886;28;20911;-75
2022/02/25 06:32:05;;;;;;;14.17;3.27;;;3.30;54.30;;;;;;5011953;28;20410;-73
2022/02/25 06:34:30;;;;;;;11.73;3.30;;;3.30;54.40;;;;;;5013119;28;20407;-73
2022/02/25 06:36:56;;;;;;;17.97;3.53;;;3.30;54.70;;;;;;5006163;28;20440;-74
2022/02/25 06:39:22;;;;;;;15.65;3.90;;;3.40;54.40;;;;;;5012203;28;20748;-74
2022/02/25 06:41:47;;;;;;;15.40;2.97;;;3.40;53.40;;;;;;5011022;28;20400;-73
2022/02/25 06:44:13;;;;;;;20.37;3.40;;;3.50;53.40;;;;;;5011387;28;20427;-73
2022/02/25 06:46:38;;;;;;;15.53;3.10;;;3.50;52.90;;;;;;4997919;28;20904;-73
2022/02/25 06:49:04;;;;;;;24.17;3.90;;;3.60;52.10;;;;;;5003048;28;20418;-74
2022/02/25 06:51:30;;;;;;;18.15;3.65;;;3.80;51.00;;;;;;5008855;28;20400;-72
2022/02/25 06:53:57;;;;;;;15.43;3.47;;;3.80;50.40;;;;;;5004908;28;20874;-72
2022/02/25 06:56:23;;;;;;;14.93;3.47;;;3.90;50.40;;;;;;5008856;28;20401;-73
2022/02/25 06:58:48;;;;;;;20.40;3.50;;;4.00;49.30;;;;;;5002563;28;20988;-72
2022/02/25 07:01:14;;;;;;;18.63;3.35;;;4.00;48.80;;;;;;5004757;28;20412;-72
2022/02/25 07:03:40;;;;;;;17.30;3.80;;;3.90;49.20;;;;;;5011115;28;20393;-73
2022/02/25 07:06:05;;;;;;;20.65;3.70;;;3.90;49.30;;;;;;5007594;28;20409;-72
2022/02/25 07:08:31;;;;;;;17.93;3.57;;;4.00;49.20;;;;;;5002978;28;20428;-72
2022/02/25 07:10:57;;;;;;;14.50;3.50;;;4.10;48.30;;;;;;5008427;28;20913;-73
2022/02/25 07:13:22;;;;;;;16.80;3.85;;;4.10;48.90;;;;;;4999594;28;20402;-73
2022/02/25 07:15:50;;;;;;;18.83;3.83;;;4.20;48.50;;;;;;5007217;28;20393;-73
2022/02/25 07:18:16;;;;;;;24.83;3.55;;;4.40;46.80;;;;;;5006646;28;20433;-73
2022/02/25 07:20:43;;;;;;;14.27;3.75;;;4.50;45.90;;;;;;5011713;28;20404;-73
2022/02/25 07:23:10;;;;;;;22.65;3.60;;;4.60;45.80;;;;;;5007818;28;20406;-74
2022/02/25 07:25:36;;;;;;;17.88;3.45;;;4.70;45.70;;;;;;5007241;28;20747;-73
2022/02/25 07:28:01;;;;;;;21.15;3.53;;;5.00;42.80;;;;;;5005209;28;20962;-74
2022/02/25 07:30:28;;;;;;;20.48;3.40;;;5.00;42.50;;;;;;5003125;28;20490;-74
2022/02/25 07:32:54;;;;;;;15.33;2.97;;;5.10;43.20;;;;;;5002393;28;20736;-74
2022/02/25 07:35:19;;;;;;;13.88;2.90;;;5.20;41.20;;;;;;5004950;28;20446;-74
2022/02/25 07:37:45;;;;;;;13.43;3.13;;;5.20;41.70;;;;;;5002174;28;20443;-74
2022/02/25 07:40:13;;;;;;;14.23;3.10;;;5.30;41.60;;;;;;5007824;28;20711;-75
2022/02/25 07:42:40;;;;;;;19.90;3.05;;;5.20;41.80;;;;;;5003129;28;20491;-74
2022/02/25 07:45:06;;;;;;;16.25;2.80;;;5.30;41.30;;;;;;5005883;28;20852;-74
2022/02/25 07:47:32;;;;;;;15.73;3.40;;;5.40;40.60;;;;;;5007424;28;20416;-75
2022/02/25 07:50:11;;;;;;;15.25;3.92;;;5.40;40.70;;;;;;5006047;28;20400;-76
2022/02/25 07:52:37;;;;;;;22.80;4.25;;;5.30;42.10;;;;;;5001602;28;20398;-74
2022/02/25 07:55:03;;;;;;;16.77;3.50;;;5.10;44.30;;;;;;5007118;28;20429;-74
2022/02/25 07:57:33;;;;;;;16.40;3.42;;;5.20;45.00;;;;;;5004560;28;20436;-74
2022/02/25 07:59:58;;;;;;;16.27;3.40;;;5.30;43.60;;;;;;5012306;28;20415;-76
2022/02/25 08:02:24;;;;;;;13.40;3.40;;;5.30;44.70;;;;;;5007692;28;20421;-73
2022/02/25 08:04:50;;;;;;;10.47;3.30;;;5.30;44.80;;;;;;5001210;28;20404;-74
2022/02/25 08:07:15;;;;;;;16.50;3.10;;;5.20;46.80;;;;;;4997649;28;20906;-76
2022/02/25 08:09:41;;;;;;;18.97;4.00;;;5.20;49.90;;;;;;5000468;28;20398;-72
2022/02/25 08:12:07;;;;;;;17.20;4.20;;;5.20;49.50;;;;;;5006126;28;20933;-75
2022/02/25 08:14:37;;;;;;;18.10;3.30;;;5.20;49.60;;;;;;4994330;28;20426;-74
2022/02/25 08:17:05;;;;;;;16.45;3.90;;;5.20;47.50;;;;;;4995306;28;20401;-73
2022/02/25 08:19:30;;;;;;;13.63;3.25;;;5.30;47.40;;;;;;5003595;28;20828;-74
2022/02/25 08:21:56;;;;;;;15.70;2.90;;;5.30;48.40;;;;;;5009148;28;20830;-74
2022/02/25 08:24:21;;;;;;;17.98;3.42;;;5.40;46.30;;;;;;4998828;28;20413;-74
2022/02/25 08:26:47;;;;;;;18.77;3.88;;;5.40;46.30;;;;;;5002242;28;20433;-73
2022/02/25 08:29:12;;;;;;;15.25;3.40;;;5.50;46.00;;;;;;4998597;28;20449;-73
2022/02/25 08:31:38;;;;;;;16.60;3.70;;;5.40;46.40;;;;;;5001141;28;20454;-73
2022/02/25 08:34:04;;;;;;;19.30;3.67;;;5.40;49.30;;;;;;5002493;28;20420;-73
2022/02/25 08:36:30;;;;;;;12.67;3.43;;;5.20;51.00;;;;;;4999325;28;20396;-74
2022/02/25 08:38:55;;;;;;;14.93;3.92;;;5.30;50.90;;;;;;4998920;28;20541;-75
2022/02/25 08:41:21;;;;;;;18.07;3.33;;;5.40;51.70;;;;;;5003955;28;20479;-75
2022/02/25 08:43:47;;;;;;;21.90;3.40;;;5.50;50.10;;;;;;5004085;28;20431;-76
2022/02/25 08:46:13;;;;;;;12.23;3.33;;;5.50;49.90;;;;;;5002476;28;20738;-75
2022/02/25 08:48:39;;;;;;;14.75;3.55;;;5.50;49.40;;;;;;4999789;28;20476;-75
2022/02/25 08:51:05;;;;;;;21.03;4.30;;;5.60;48.10;;;;;;5001168;28;20409;-77
2022/02/25 08:53:31;;;;;;;18.02;3.85;;;5.60;49.00;;;;;;5002640;28;20451;-74
2022/02/25 08:55:59;;;;;;;19.30;3.70;;;5.60;48.70;;;;;;5004664;28;20487;-76
2022/02/25 08:58:24;;;;;;;17.17;4.00;;;5.60;49.30;;;;;;5001426;28;20780;-74
2022/02/25 09:00:50;;;;;;;12.98;3.60;;;5.50;50.20;;;;;;5000137;28;20413;-75
2022/02/25 09:03:16;;;;;;;14.45;4.10;;;5.60;49.00;;;;;;5002641;28;20700;-75
2022/02/25 09:05:42;;;;;;;19.90;3.60;;;5.50;50.50;;;;;;5001879;28;20413;-75
2022/02/25 09:08:07;;;;;;;17.67;4.55;;;5.70;48.70;;;;;;5005524;28;20416;-77
2022/02/25 09:10:33;;;;;;;18.65;3.75;;;5.70;48.00;;;;;;5005497;28;20624;-74
2022/02/25 09:12:59;;;;;;;12.00;3.73;;;5.80;48.20;;;;;;5003187;28;20424;-74
2022/02/25 09:15:26;;;;;;;18.70;3.37;;;5.80;47.30;;;;;;5001660;28;20443;-76
2022/02/25 09:17:55;;;;;;;19.02;4.38;;;6.00;46.10;;;;;;5005699;28;20468;-76
2022/02/25 09:20:21;;;;;;;13.05;3.65;;;6.20;45.60;;;;;;5005379;28;20432;-74
2022/02/25 09:22:48;;;;;;;14.47;4.10;;;6.40;43.00;;;;;;4996616;28;22098;-74
2022/02/25 09:25:14;;;;;;;18.60;4.10;;;6.50;43.10;;;;;;5001863;28;20830;-75
2022/02/25 09:27:40;;;;;;;18.48;3.90;;;6.60;43.20;;;;;;5002971;28;20510;-75
2022/02/25 09:30:08;;;;;;;18.27;4.40;;;6.70;42.50;;;;;;4998510;28;20391;-74
2022/02/25 09:32:34;;;;;;;16.45;4.20;;;6.80;42.80;;;;;;5002524;28;20459;-75
2022/02/25 09:35:00;;;;;;;19.40;4.22;;;6.80;41.50;;;;;;5002403;28;20407;-74
2022/02/25 09:37:26;;;;;;;20.10;5.13;;;6.90;41.00;;;;;;4998497;28;20433;-75
2022/02/25 09:39:53;;;;;;;19.67;4.30;;;7.10;40.20;;;;;;5002454;28;20432;-74
2022/02/25 09:42:21;;;;;;;20.20;4.47;;;7.00;41.10;;;;;;5005434;28;20531;-76
2022/02/25 09:44:47;;;;;;;21.13;4.85;;;7.00;40.60;;;;;;5004845;28;20544;-74
2022/02/25 09:47:14;;;;;;;20.80;4.00;;;6.90;40.60;;;;;;5004577;28;20839;-74
2022/02/25 09:49:40;;;;;;;21.02;4.15;;;6.80;41.70;;;;;;5005956;28;20405;-76
2022/02/25 09:52:11;;;;;;;18.47;4.57;;;6.70;43.50;;;;;;5007511;28;20487;-77
2022/02/25 09:54:37;;;;;;;21.02;4.00;;;6.80;43.60;;;;;;4999880;28;20520;-75
2022/02/25 09:57:02;;;;;;;21.60;4.00;;;6.80;42.20;;;;;;5006608;28;20397;-75
2022/02/25 09:59:28;;;;;;;15.15;4.25;;;7.00;42.00;;;;;;5007807;28;20396;-74
2022/02/25 10:02:02;;;;;;;20.92;5.00;;;7.20;40.60;;;;;;5007039;28;20412;-75
2022/02/25 10:04:28;;;;;;;20.48;4.93;;;7.40;39.10;;;;;;5009849;28;20834;-76
2022/02/25 10:06:53;;;;;;;18.27;4.50;;;7.50;39.60;;;;;;5006672;28;20407;-71
2022/02/25 10:09:33;;;;;;;20.80;4.45;;;7.50;39.30;;;;;;5002921;28;20414;-74
2022/02/25 10:12:05;;;;;;;17.98;4.70;;;7.40;39.80;;;;;;5005061;28;20420;-75
2022/02/25 10:14:42;;;;;;;25.35;4.97;;;7.50;40.70;;;;;;5002863;28;20403;-74
2022/02/25 10:17:10;;;;;;;15.33;4.40;;;7.60;39.20;;;;;;5006241;28;20747;-77
2022/02/25 10:19:37;;;;;;;19.40;4.50;;;7.80;39.60;;;;;;5005397;28;20475;-75
2022/02/25 10:22:31;;;;;;;17.75;4.30;;;8.00;37.00;;;;;;5002717;28;20490;-77
2022/02/25 10:25:11;;;;;;;19.30;5.00;;;8.10;36.50;;;;;;5006731;28;20397;-75
2022/02/25 10:27:45;;;;;;;15.23;4.30;;;8.10;36.80;;;;;;5003700;28;20400;-75
2022/02/25 10:30:16;;;;;;;20.48;4.60;;;8.10;36.30;;;;;;5009701;28;20474;-75
2022/02/25 10:32:47;;;;;;;27.80;4.90;;;8.10;36.90;;;;;;5007251;28;20481;-76
2022/02/25 10:35:32;;;;;;;25.40;5.40;;;8.20;36.90;;;;;;5002196;28;20889;-75
2022/02/25 10:38:04;;;;;;;15.38;4.30;;;8.10;36.40;;;;;;5009608;28;20531;-77
2022/02/25 10:40:33;;;;;;;18.23;4.70;;;8.30;35.60;;;;;;5010366;28;20487;-74
2022/02/25 10:42:59;;;;;;;20.88;4.65;;;8.20;35.20;;;;;;5011748;28;20400;-73
2022/02/25 10:45:30;;;;;;;16.10;5.00;;;8.00;35.70;;;;;;5015215;28;20428;-75
2022/02/25 10:48:00;;;;;;;23.27;5.30;;;8.00;36.50;;;;;;5011745;28;20773;-74
2022/02/25 10:50:27;;;;;;;17.65;4.63;;;7.90;37.00;;;;;;5004609;28;20765;-76
2022/02/25 10:52:54;;;;;;;14.38;4.32;;;8.00;36.00;;;;;;5008920;28;20797;-76
2022/02/25 10:55:22;;;;;;;19.00;4.90;;;8.30;35.60;;;;;;5000823;28;20889;-75
2022/02/25 10:57:49;;;;;;;20.10;5.00;;;8.60;34.60;;;;;;5003967;28;20468;-74
2022/02/25 11:00:16;;;;;;;20.63;4.82;;;9.10;32.20;;;;;;5002348;28;20414;-75
2022/02/25 11:02:45;;;;;;;15.00;4.13;;;9.20;32.50;;;;;;5007807;28;20494;-74
2022/02/25 11:05:18;;;;;;;18.27;5.05;;;8.90;32.20;;;;;;4997486;28;20491;-76
2022/02/25 11:07:49;;;;;;;22.70;5.20;;;8.60;33.10;;;;;;5008334;28;20413;-75
2022/02/25 11:10:18;;;;;;;19.63;5.30;;;8.30;34.30;;;;;;5007361;28;20461;-75
2022/02/25 11:12:45;;;;;;;18.52;4.90;;;8.20;35.00;;;;;;5008712;28;20403;-75
2022/02/25 11:15:19;;;;;;;24.23;4.75;;;8.00;35.50;;;;;;5005908;28;20397;-76
2022/02/25 11:17:46;;;;;;;20.95;4.78;;;8.00;35.90;;;;;;5001367;28;20474;-75
2022/02/25 11:20:12;;;;;;;26.67;6.47;;;8.20;35.70;;;;;;5006934;28;20392;-75
2022/02/25 11:22:41;;;;;;;18.97;5.10;;;8.10;36.80;;;;;;5007492;28;20435;-74
2022/02/25 11:25:15;;;;;;;22.65;5.45;;;8.30;37.60;;;;;;5008441;28;20408;-75
2022/02/25 11:27:43;;;;;;;21.95;5.68;;;8.40;37.70;;;;;;4999456;28;20422;-76
2022/02/25 11:30:27;;;;;;;22.10;5.78;;;8.80;35.90;;;;;;5001794;28;20419;-75
2022/02/25 11:33:19;;;;;;;21.95;4.90;;;9.10;36.80;;;;;;5009437;28;20408;-76
2022/02/25 11:35:57;;;;;;;20.33;4.73;;;9.30;35.20;;;;;;5006037;28;20442;-75
2022/02/25 11:38:42;;;;;;;23.00;5.05;;;9.20;33.80;;;;;;5003577;28;20432;-74
2022/02/25 11:41:27;;;;;;;17.30;4.60;;;9.00;35.10;;;;;;5003552;28;20390;-74
2022/02/25 11:44:01;;;;;;;19.75;5.63;;;9.00;34.80;;;;;;5003999;28;20482;-75
2022/02/25 11:46:31;;;;;;;19.95;4.95;;;9.10;34.50;;;;;;5002257;28;20390;-75
2022/02/25 11:49:11;;;;;;;20.75;5.30;;;9.40;31.70;;;;;;4998943;28;20422;-75
2022/02/25 11:51:41;;;;;;;17.77;4.80;;;9.50;31.50;;;;;;4995596;28;20395;-75
2022/02/25 11:54:43;;;;;;;16.95;4.80;;;9.50;31.10;;;;;;5000824;28;20435;-73
2022/02/25 11:57:08;;;;;;;16.27;5.17;;;9.20;33.00;;;;;;5001051;28;20428;-76
2022/02/25 11:59:34;;;;;;;15.30;4.40;;;9.00;33.90;;;;;;5002194;28;20407;-74
2022/02/25 12:02:09;;;;;;;27.70;5.43;;;8.60;37.30;;;;;;5000467;28;20406;-76
2022/02/25 12:04:42;;;;;;;21.33;5.10;;;8.40;39.10;;;;;;5002868;28;20401;-74
2022/02/25 12:07:16;;;;;;;24.45;5.70;;;8.40;37.80;;;;;;5002281;28;20920;-75
2022/02/25 12:09:59;;;;;;;21.83;5.82;;;8.30;39.20;;;;;;5001829;28;20420;-75
2022/02/25 12:12:24;;;;;;;17.65;5.00;;;8.30;37.50;;;;;;5009150;28;20396;-76
2022/02/25 12:15:11;;;;;;;17.30;4.57;;;8.40;37.10;;;;;;5007808;28;20427;-74
2022/02/25 12:17:47;;;;;;;21.83;5.22;;;8.40;37.40;;;;;;5010280;28;20397;-74
2022/02/25 12:20:23;;;;;;;19.20;4.50;;;8.20;37.70;;;;;;5007537;28;20393;-74
2022/02/25 12:22:58;;;;;;;18.80;5.57;;;7.80;39.70;;;;;;5005775;28;20400;-73
2022/02/25 12:25:39;;;;;;;19.30;5.68;;;7.60;44.10;;;;;;5007548;28;20426;-75
2022/02/25 12:28:14;;;;;;;19.92;4.90;;;7.40;45.30;;;;;;5007233;28;20442;-76
2022/02/25 12:30:42;;;;;;;12.05;4.70;;;7.40;44.50;;;;;;5002164;28;20471;-77
2022/02/25 12:33:26;;;;;;;19.42;5.20;;;7.20;46.70;;;;;;5001503;28;20722;-76
2022/02/25 12:35:56;;;;;;;19.77;5.60;;;7.00;48.80;;;;;;4998015;28;20774;-75
2022/02/25 12:38:23;;;;;;;24.60;5.90;;;6.90;52.20;;;;;;5002108;28;20866;-75
2022/02/25 12:40:49;;;;;;;20.55;6.22;;;7.00;52.60;;;;;;5002320;28;20462;-76
2022/02/25 12:43:15;;;;;;;20.13;5.10;;;7.00;53.70;;;;;;5001794;28;20393;-76
2022/02/25 12:45:41;;;;;;;19.02;5.18;;;7.20;50.70;;;;;;5006092;28;20400;-75
2022/02/25 12:48:06;;;;;;;21.02;5.30;;;7.30;51.30;;;;;;5005764;28;20414;-74
2022/02/25 12:50:38;;;;;;;19.30;5.20;;;7.70;49.50;;;;;;5002342;28;20398;-74
2022/02/25 12:53:04;;;;;;;22.70;5.78;;;7.80;46.90;;;;;;5002011;28;20410;-74
2022/02/25 12:55:30;;;;;;;25.90;5.20;;;7.90;46.00;;;;;;5000921;28;20401;-75